sensor_id;sensor_type;location;lat;lon;timestamp;temperature;humidity
46340;DHT22;47273;49.274;8.708;2023-02-23T05:00:18;11.40;99.90
46340;DHT22;47273;49.274;8.708;2023-02-23T05:02:49;11.40;99.90
46340;DHT22;47273;49.274;8.708;2023-02-23T05:05:17;11.50;99.90
46340;DHT22;47273;49.274;8.708;2023-02-23T05:07:43;11.50;99.90
46340;DHT22;47273;49.274;8.708;2023-02-23T05:10:15;11.50;99.90
46340;DHT22;47273;49.274;8.708;2023-02-23T05:12:48;11.50;99.90
46340;DHT22;47273;49.274;8.708;2023-02-23T05:15:13;11.50;99.90
46340;DHT22;47273;49.274;8.708;2023-02-23T05:17:43;11.50;99.90
46340;DHT22;47273;49.274;8.708;2023-02-23T05:20:13;11.50;99.90
46340;DHT22;47273;49.274;8.708;2023-02-23T05:22:39;11.50;99.90
46340;DHT22;47273;49.274;8.708;2023-02-23T05:25:10;11.50;99.90
46340;DHT22;47273;49.274;8.708;2023-02-23T05:27:37;11.50;99.90
46340;DHT22;47273;49.274;8.708;2023-02-23T05:30:04;11.50;99.90
46340;DHT22;47273;49.274;8.708;2023-02-23T05:32:38;11.50;99.90
46340;DHT22;47273;49.274;8.708;2023-02-23T05:35:07;11.50;99.90
46340;DHT22;47273;49.274;8.708;2023-02-23T05:37:33;11.50;99.90
46340;DHT22;47273;49.274;8.708;2023-02-23T05:39:59;11.60;99.90
46340;DHT22;47273;49.274;8.708;2023-02-23T05:42:25;11.50;99.90
46340;DHT22;47273;49.274;8.708;2023-02-23T05:44:51;11.50;99.90
46340;DHT22;47273;49.274;8.708;2023-02-23T05:50:12;11.50;99.90
46340;DHT22;47273;49.274;8.708;2023-02-23T05:52:41;11.50;99.90
46340;DHT22;47273;49.274;8.708;2023-02-23T05:55:09;11.50;99.90
46340;DHT22;47273;49.274;8.708;2023-02-23T05:57:41;11.50;99.90
46340;DHT22;47273;49.274;8.708;2023-02-23T06:00:11;11.50;99.90
46340;DHT22;47273;49.274;8.708;2023-02-23T06:02:53;11.50;99.90
46340;DHT22;47273;49.274;8.708;2023-02-23T06:05:19;11.50;99.90
46340;DHT22;47273;49.274;8.708;2023-02-23T06:07:44;11.50;99.90
46340;DHT22;47273;49.274;8.708;2023-02-23T06:10:13;11.50;99.90
46340;DHT22;47273;49.274;8.708;2023-02-23T06:12:38;11.50;99.90
46340;DHT22;47273;49.274;8.708;2023-02-23T06:15:05;11.40;99.90
46340;DHT22;47273;49.274;8.708;2023-02-23T06:17:39;11.40;99.90
46340;DHT22;47273;49.274;8.708;2023-02-23T06:20:07;11.30;99.90
46340;DHT22;47273;49.274;8.708;2023-02-23T06:22:36;11.30;99.90
46340;DHT22;47273;49.274;8.708;2023-02-23T06:25:02;11.30;99.90
46340;DHT22;47273;49.274;8.708;2023-02-23T06:27:51;11.20;99.90
46340;DHT22;47273;49.274;8.708;2023-02-23T06:30:51;11.10;99.90
46340;DHT22;47273;49.274;8.708;2023-02-23T06:33:18;11.10;99.90
46340;DHT22;47273;49.274;8.708;2023-02-23T06:35:46;11.10;99.90
46340;DHT22;47273;49.274;8.708;2023-02-23T06:38:11;11.20;99.90
46340;DHT22;47273;49.274;8.708;2023-02-23T06:40:46;11.20;99.90
46340;DHT22;47273;49.274;8.708;2023-02-23T06:43:12;11.20;99.90
46340;DHT22;47273;49.274;8.708;2023-02-23T06:45:38;11.10;99.90
46340;DHT22;47273;49.274;8.708;2023-02-23T06:48:04;11.20;99.90
46340;DHT22;47273;49.274;8.708;2023-02-23T06:50:33;11.20;99.90
46340;DHT22;47273;49.274;8.708;2023-02-23T06:52:58;11.30;99.90
46340;DHT22;47273;49.274;8.708;2023-02-23T06:55:30;11.20;99.90
46340;DHT22;47273;49.274;8.708;2023-02-23T06:57:57;11.20;99.90
46340;DHT22;47273;49.274;8.708;2023-02-23T07:00:23;11.20;99.90
46340;DHT22;47273;49.274;8.708;2023-02-23T07:02:48;11.20;99.90
46340;DHT22;47273;49.274;8.708;2023-02-23T07:05:14;11.20;99.90
46340;DHT22;47273;49.274;8.708;2023-02-23T07:07:45;11.20;99.90
46340;DHT22;47273;49.274;8.708;2023-02-23T07:10:11;11.20;99.90
46340;DHT22;47273;49.274;8.708;2023-02-23T07:16:23;11.20;99.90
46340;DHT22;47273;49.274;8.708;2023-02-23T07:18:55;11.20;99.90
46340;DHT22;47273;49.274;8.708;2023-02-23T07:21:21;11.20;99.90
46340;DHT22;47273;49.274;8.708;2023-02-23T07:23:46;11.30;99.90
46340;DHT22;47273;49.274;8.708;2023-02-23T07:26:14;11.30;99.90
46340;DHT22;47273;49.274;8.708;2023-02-23T07:28:47;11.30;99.90
46340;DHT22;47273;49.274;8.708;2023-02-23T07:31:13;11.30;99.90
46340;DHT22;47273;49.274;8.708;2023-02-23T07:33:42;11.20;99.90
46340;DHT22;47273;49.274;8.708;2023-02-23T07:36:10;11.20;99.90
46340;DHT22;47273;49.274;8.708;2023-02-23T07:38:45;11.30;99.90
46340;DHT22;47273;49.274;8.708;2023-02-23T07:41:11;11.20;99.90
46340;DHT22;47273;49.274;8.708;2023-02-23T07:43:40;11.20;99.90
46340;DHT22;47273;49.274;8.708;2023-02-23T07:46:19;11.30;99.90
46340;DHT22;47273;49.274;8.708;2023-02-23T07:48:49;11.30;99.90
46340;DHT22;47273;49.274;8.708;2023-02-23T07:51:18;11.30;99.90
46340;DHT22;47273;49.274;8.708;2023-02-23T07:54:16;11.40;99.90
46340;DHT22;47273;49.274;8.708;2023-02-23T07:56:45;11.50;99.90
46340;DHT22;47273;49.274;8.708;2023-02-23T07:59:17;11.50;99.90
46340;DHT22;47273;49.274;8.708;2023-02-23T08:01:43;11.50;99.90
46340;DHT22;47273;49.274;8.708;2023-02-23T08:04:14;11.60;99.90
46340;DHT22;47273;49.274;8.708;2023-02-23T08:06:39;11.50;99.90
46340;DHT22;47273;49.274;8.708;2023-02-23T08:09:05;11.60;99.90
46340;DHT22;47273;49.274;8.708;2023-02-23T08:11:33;11.60;99.90
46340;DHT22;47273;49.274;8.708;2023-02-23T08:14:08;11.70;99.90
46340;DHT22;47273;49.274;8.708;2023-02-23T08:16:38;11.70;99.90
46340;DHT22;47273;49.274;8.708;2023-02-23T08:19:06;11.70;99.90
46340;DHT22;47273;49.274;8.708;2023-02-23T08:21:32;11.70;99.90
46340;DHT22;47273;49.274;8.708;2023-02-23T08:23:58;11.80;99.90
46340;DHT22;47273;49.274;8.708;2023-02-23T08:26:26;11.80;99.90
46340;DHT22;47273;49.274;8.708;2023-02-23T08:28:55;11.90;99.90
46340;DHT22;47273;49.274;8.708;2023-02-23T08:31:21;11.90;99.90
46340;DHT22;47273;49.274;8.708;2023-02-23T08:33:50;12.00;99.90
46340;DHT22;47273;49.274;8.708;2023-02-23T08:36:23;12.00;99.90
46340;DHT22;47273;49.274;8.708;2023-02-23T08:38:49;12.00;99.90
46340;DHT22;47273;49.274;8.708;2023-02-23T08:41:18;12.00;99.90
46340;DHT22;47273;49.274;8.708;2023-02-23T08:43:44;12.00;99.90
46340;DHT22;47273;49.274;8.708;2023-02-23T08:46:10;11.90;99.90
46340;DHT22;47273;49.274;8.708;2023-02-23T08:48:36;12.00;99.90
46340;DHT22;47273;49.274;8.708;2023-02-23T08:51:03;12.00;99.90
46340;DHT22;47273;49.274;8.708;2023-02-23T08:53:31;12.00;99.90
46340;DHT22;47273;49.274;8.708;2023-02-23T08:56:03;12.10;99.90
46340;DHT22;47273;49.274;8.708;2023-02-23T08:58:31;12.10;99.90
46340;DHT22;47273;49.274;8.708;2023-02-23T09:00:58;12.30;99.90
46340;DHT22;47273;49.274;8.708;2023-02-23T09:03:31;12.30;99.90
46340;DHT22;47273;49.274;8.708;2023-02-23T09:06:08;12.30;99.90
46340;DHT22;47273;49.274;8.708;2023-02-23T09:08:37;12.40;99.90
46340;DHT22;47273;49.274;8.708;2023-02-23T09:11:04;12.50;99.90
46340;DHT22;47273;49.274;8.708;2023-02-23T09:13:31;12.60;99.90
46340;DHT22;47273;49.274;8.708;2023-02-23T09:15:59;12.60;99.90
46340;DHT22;47273;49.274;8.708;2023-02-23T09:18:24;12.70;99.90
46340;DHT22;47273;49.274;8.708;2023-02-23T09:20:54;12.70;99.90
46340;DHT22;47273;49.274;8.708;2023-02-23T09:23:20;12.60;99.90
46340;DHT22;47273;49.274;8.708;2023-02-23T09:25:45;12.70;99.90
46340;DHT22;47273;49.274;8.708;2023-02-23T09:28:18;12.90;99.90
46340;DHT22;47273;49.274;8.708;2023-02-23T09:30:45;13.00;99.90
46340;DHT22;47273;49.274;8.708;2023-02-23T09:33:14;13.10;99.90
46340;DHT22;47273;49.274;8.708;2023-02-23T09:35:42;13.20;99.90
46340;DHT22;47273;49.274;8.708;2023-02-23T09:38:14;13.30;99.90
46340;DHT22;47273;49.274;8.708;2023-02-23T09:40:46;13.40;99.90
46340;DHT22;47273;49.274;8.708;2023-02-23T09:43:43;13.40;99.90
46340;DHT22;47273;49.274;8.708;2023-02-23T09:46:40;13.50;99.90
46340;DHT22;47273;49.274;8.708;2023-02-23T09:49:20;13.60;99.90
46340;DHT22;47273;49.274;8.708;2023-02-23T09:51:50;13.80;99.90
46340;DHT22;47273;49.274;8.708;2023-02-23T09:54:22;13.90;99.90
46340;DHT22;47273;49.274;8.708;2023-02-23T09:56:49;13.90;99.90
46340;DHT22;47273;49.274;8.708;2023-02-23T09:59:18;14.00;99.90
46340;DHT22;47273;49.274;8.708;2023-02-23T10:04:42;14.20;99.90
46340;DHT22;47273;49.274;8.708;2023-02-23T10:13:13;14.20;99.90
46340;DHT22;47273;49.274;8.708;2023-02-23T10:15:43;14.20;99.90
46340;DHT22;47273;49.274;8.708;2023-02-23T10:18:57;14.30;99.90
46340;DHT22;47273;49.274;8.708;2023-02-23T10:21:33;14.40;99.90
46340;DHT22;47273;49.274;8.708;2023-02-23T10:24:26;14.50;99.90
46340;DHT22;47273;49.274;8.708;2023-02-23T10:27:09;14.60;99.90
46340;DHT22;47273;49.274;8.708;2023-02-23T10:29:44;14.70;99.90
46340;DHT22;47273;49.274;8.708;2023-02-23T10:32:40;14.80;99.90
46340;DHT22;47273;49.274;8.708;2023-02-23T10:35:12;14.80;99.90
46340;DHT22;47273;49.274;8.708;2023-02-23T10:37:38;14.70;99.90
46340;DHT22;47273;49.274;8.708;2023-02-23T10:40:05;14.90;99.90
46340;DHT22;47273;49.274;8.708;2023-02-23T10:42:34;15.00;99.90
46340;DHT22;47273;49.274;8.708;2023-02-23T10:45:01;15.20;99.90
46340;DHT22;47273;49.274;8.708;2023-02-23T10:47:32;15.00;99.90
46340;DHT22;47273;49.274;8.708;2023-02-23T10:49:59;15.10;99.90
46340;DHT22;47273;49.274;8.708;2023-02-23T10:52:57;15.30;99.90
46340;DHT22;47273;49.274;8.708;2023-02-23T10:55:29;15.40;99.90
46340;DHT22;47273;49.274;8.708;2023-02-23T10:58:15;15.60;99.90
46340;DHT22;47273;49.274;8.708;2023-02-23T11:00:57;15.70;99.90
46340;DHT22;47273;49.274;8.708;2023-02-23T11:03:39;15.70;99.90
46340;DHT22;47273;49.274;8.708;2023-02-23T11:06:12;15.90;99.90
46340;DHT22;47273;49.274;8.708;2023-02-23T11:08:51;16.10;99.90
46340;DHT22;47273;49.274;8.708;2023-02-23T11:11:25;16.00;99.00
46340;DHT22;47273;49.274;8.708;2023-02-23T11:13:56;16.10;99.90
46340;DHT22;47273;49.274;8.708;2023-02-23T11:16:27;16.30;99.00
46340;DHT22;47273;49.274;8.708;2023-02-23T11:19:04;16.20;98.90
46340;DHT22;47273;49.274;8.708;2023-02-23T11:21:34;16.20;99.10
46340;DHT22;47273;49.274;8.708;2023-02-23T11:24:25;16.30;98.90
46340;DHT22;47273;49.274;8.708;2023-02-23T11:32:20;16.50;99.90
46340;DHT22;47273;49.274;8.708;2023-02-23T11:34:47;16.50;99.90
46340;DHT22;47273;49.274;8.708;2023-02-23T11:37:33;16.60;99.90
46340;DHT22;47273;49.274;8.708;2023-02-23T11:40:01;16.50;99.90
46340;DHT22;47273;49.274;8.708;2023-02-23T11:42:31;16.30;99.90
46340;DHT22;47273;49.274;8.708;2023-02-23T11:45:05;16.20;99.90
46340;DHT22;47273;49.274;8.708;2023-02-23T11:47:33;16.50;99.90
46340;DHT22;47273;49.274;8.708;2023-02-23T11:50:06;16.50;99.90
46340;DHT22;47273;49.274;8.708;2023-02-23T11:52:33;16.50;99.90
46340;DHT22;47273;49.274;8.708;2023-02-23T11:55:14;16.70;99.90
46340;DHT22;47273;49.274;8.708;2023-02-23T11:57:43;16.90;99.90
46340;DHT22;47273;49.274;8.708;2023-02-23T12:00:24;17.00;99.90
46340;DHT22;47273;49.274;8.708;2023-02-23T12:03:00;17.00;99.90
46340;DHT22;47273;49.274;8.708;2023-02-23T12:05:31;17.20;99.90
46340;DHT22;47273;49.274;8.708;2023-02-23T12:08:18;17.20;99.80
46340;DHT22;47273;49.274;8.708;2023-02-23T12:10:50;17.30;99.90
46340;DHT22;47273;49.274;8.708;2023-02-23T12:13:37;17.70;99.90
46340;DHT22;47273;49.274;8.708;2023-02-23T12:16:27;17.90;99.60
46340;DHT22;47273;49.274;8.708;2023-02-23T12:19:33;18.10;98.90
46340;DHT22;47273;49.274;8.708;2023-02-23T12:22:05;18.50;99.00
46340;DHT22;47273;49.274;8.708;2023-02-23T12:27:15;18.20;98.20
46340;DHT22;47273;49.274;8.708;2023-02-23T12:38:47;17.60;99.30
46340;DHT22;47273;49.274;8.708;2023-02-23T12:41:24;17.80;98.70
46340;DHT22;47273;49.274;8.708;2023-02-23T12:47:04;17.80;98.40
46340;DHT22;47273;49.274;8.708;2023-02-23T12:49:43;18.00;97.60
46340;DHT22;47273;49.274;8.708;2023-02-23T12:52:17;17.80;98.00
46340;DHT22;47273;49.274;8.708;2023-02-23T12:54:47;17.80;98.00
46340;DHT22;47273;49.274;8.708;2023-02-23T12:58:02;17.70;97.50
46340;DHT22;47273;49.274;8.708;2023-02-23T13:12:00;17.10;96.50
46340;DHT22;47273;49.274;8.708;2023-02-23T13:20:21;17.00;97.20
46340;DHT22;47273;49.274;8.708;2023-02-23T13:22:58;16.90;97.50
46340;DHT22;47273;49.274;8.708;2023-02-23T13:27:58;16.80;98.20
46340;DHT22;47273;49.274;8.708;2023-02-23T13:30:25;16.60;98.00
46340;DHT22;47273;49.274;8.708;2023-02-23T13:32:51;16.60;98.40
46340;DHT22;47273;49.274;8.708;2023-02-23T13:35:18;16.60;98.50
46340;DHT22;47273;49.274;8.708;2023-02-23T13:38:06;16.60;95.40
46340;DHT22;47273;49.274;8.708;2023-02-23T13:40:39;16.60;96.70
46340;DHT22;47273;49.274;8.708;2023-02-23T13:51:34;16.60;97.10
46340;DHT22;47273;49.274;8.708;2023-02-23T13:54:04;16.40;92.00
46340;DHT22;47273;49.274;8.708;2023-02-23T13:56:45;16.40;91.70
46340;DHT22;47273;49.274;8.708;2023-02-23T13:59:24;16.50;94.50
46340;DHT22;47273;49.274;8.708;2023-02-23T14:02:00;16.30;91.80
46340;DHT22;47273;49.274;8.708;2023-02-23T14:04:33;16.30;91.60
46340;DHT22;47273;49.274;8.708;2023-02-23T14:07:21;16.30;91.70
46340;DHT22;47273;49.274;8.708;2023-02-23T14:12:23;16.30;91.50
46340;DHT22;47273;49.274;8.708;2023-02-23T14:14:56;16.20;91.60
46340;DHT22;47273;49.274;8.708;2023-02-23T14:17:42;16.10;91.50
46340;DHT22;47273;49.274;8.708;2023-02-23T14:20:16;16.10;91.50
46340;DHT22;47273;49.274;8.708;2023-02-23T14:23:26;16.10;91.70
46340;DHT22;47273;49.274;8.708;2023-02-23T14:26:12;16.00;91.40
46340;DHT22;47273;49.274;8.708;2023-02-23T14:28:42;16.00;91.70
46340;DHT22;47273;49.274;8.708;2023-02-23T14:39:14;15.90;91.60
46340;DHT22;47273;49.274;8.708;2023-02-23T14:41:58;15.80;91.40
46340;DHT22;47273;49.274;8.708;2023-02-23T14:44:35;15.80;91.70
46340;DHT22;47273;49.274;8.708;2023-02-23T14:47:14;15.80;91.60
46340;DHT22;47273;49.274;8.708;2023-02-23T14:49:55;15.80;91.70
46340;DHT22;47273;49.274;8.708;2023-02-23T14:52:31;15.70;91.60
46340;DHT22;47273;49.274;8.708;2023-02-23T14:55:26;15.70;91.80
46340;DHT22;47273;49.274;8.708;2023-02-23T14:57:52;15.70;91.70
46340;DHT22;47273;49.274;8.708;2023-02-23T15:00:27;15.70;91.80
46340;DHT22;47273;49.274;8.708;2023-02-23T15:05:27;15.70;91.90
46340;DHT22;47273;49.274;8.708;2023-02-23T15:07:59;15.70;92.00
46340;DHT22;47273;49.274;8.708;2023-02-23T15:10:35;15.60;91.90
46340;DHT22;47273;49.274;8.708;2023-02-23T15:13:32;15.60;91.80
46340;DHT22;47273;49.274;8.708;2023-02-23T15:16:05;15.60;92.10
46340;DHT22;47273;49.274;8.708;2023-02-23T15:21:59;15.60;92.10
46340;DHT22;47273;49.274;8.708;2023-02-23T15:24:41;15.50;91.90
46340;DHT22;47273;49.274;8.708;2023-02-23T15:27:22;15.50;92.10
46340;DHT22;47273;49.274;8.708;2023-02-23T15:29:50;15.40;92.20
46340;DHT22;47273;49.274;8.708;2023-02-23T15:32:21;15.40;92.10
46340;DHT22;47273;49.274;8.708;2023-02-23T15:34:48;15.40;92.40
46340;DHT22;47273;49.274;8.708;2023-02-23T15:37:34;15.30;92.60
46340;DHT22;47273;49.274;8.708;2023-02-23T15:40:11;15.30;92.80
46340;DHT22;47273;49.274;8.708;2023-02-23T15:42:43;15.30;92.80
46340;DHT22;47273;49.274;8.708;2023-02-23T15:45:30;15.20;92.70
46340;DHT22;47273;49.274;8.708;2023-02-23T15:48:03;15.20;93.20
46340;DHT22;47273;49.274;8.708;2023-02-23T15:50:33;15.10;93.10
46340;DHT22;47273;49.274;8.708;2023-02-23T15:53:04;15.10;93.00
46340;DHT22;47273;49.274;8.708;2023-02-23T15:55:35;15.10;93.10
46340;DHT22;47273;49.274;8.708;2023-02-23T15:58:12;15.00;93.10
46340;DHT22;47273;49.274;8.708;2023-02-23T16:00:43;15.00;92.90
46340;DHT22;47273;49.274;8.708;2023-02-23T16:03:32;15.00;93.10
46340;DHT22;47273;49.274;8.708;2023-02-23T16:08:25;15.00;93.00
46340;DHT22;47273;49.274;8.708;2023-02-23T16:11:11;14.90;93.20
46340;DHT22;47273;49.274;8.708;2023-02-23T16:13:41;14.90;93.20
46340;DHT22;47273;49.274;8.708;2023-02-23T16:16:09;14.80;93.30
46340;DHT22;47273;49.274;8.708;2023-02-23T16:18:50;14.80;93.40
46340;DHT22;47273;49.274;8.708;2023-02-23T16:21:20;14.80;93.40
46340;DHT22;47273;49.274;8.708;2023-02-23T16:23:50;14.80;93.40
46340;DHT22;47273;49.274;8.708;2023-02-23T16:26:25;14.70;93.40
46340;DHT22;47273;49.274;8.708;2023-02-23T16:28:55;14.70;93.60
46340;DHT22;47273;49.274;8.708;2023-02-23T16:31:24;14.70;93.50
46340;DHT22;47273;49.274;8.708;2023-02-23T16:36:53;14.60;93.70
46340;DHT22;47273;49.274;8.708;2023-02-23T16:39:19;14.60;93.80
46340;DHT22;47273;49.274;8.708;2023-02-23T16:41:45;14.50;93.80
46340;DHT22;47273;49.274;8.708;2023-02-23T16:44:16;14.50;94.00
46340;DHT22;47273;49.274;8.708;2023-02-23T16:49:22;14.40;94.00
46340;DHT22;47273;49.274;8.708;2023-02-23T16:51:49;14.40;94.10
46340;DHT22;47273;49.274;8.708;2023-02-23T16:54:15;14.40;94.20
46340;DHT22;47273;49.274;8.708;2023-02-23T16:56:41;14.30;94.30
46340;DHT22;47273;49.274;8.708;2023-02-23T16:59:09;14.30;94.30
46340;DHT22;47273;49.274;8.708;2023-02-23T17:01:41;14.30;94.20
46340;DHT22;47273;49.274;8.708;2023-02-23T17:04:15;14.30;94.20
46340;DHT22;47273;49.274;8.708;2023-02-23T17:06:44;14.30;94.30
46340;DHT22;47273;49.274;8.708;2023-02-23T17:09:17;14.20;94.30
46340;DHT22;47273;49.274;8.708;2023-02-23T17:11:55;14.30;94.40
46340;DHT22;47273;49.274;8.708;2023-02-23T17:14:26;14.20;94.40
46340;DHT22;47273;49.274;8.708;2023-02-23T17:17:13;14.20;94.40
46340;DHT22;47273;49.274;8.708;2023-02-23T17:19:39;14.20;94.40
46340;DHT22;47273;49.274;8.708;2023-02-23T17:22:05;14.20;94.40
46340;DHT22;47273;49.274;8.708;2023-02-23T17:24:34;14.20;94.50
46340;DHT22;47273;49.274;8.708;2023-02-23T17:27:02;14.10;94.70
46340;DHT22;47273;49.274;8.708;2023-02-23T17:29:31;14.10;94.70
46340;DHT22;47273;49.274;8.708;2023-02-23T17:31:57;14.10;94.80
46340;DHT22;47273;49.274;8.708;2023-02-23T17:34:31;14.10;94.90
46340;DHT22;47273;49.274;8.708;2023-02-23T17:36:56;14.00;94.90
46340;DHT22;47273;49.274;8.708;2023-02-23T17:39:22;14.00;94.90
46340;DHT22;47273;49.274;8.708;2023-02-23T17:41:53;14.00;94.90
46340;DHT22;47273;49.274;8.708;2023-02-23T17:44:19;14.00;95.00
46340;DHT22;47273;49.274;8.708;2023-02-23T17:46:48;14.00;95.10
46340;DHT22;47273;49.274;8.708;2023-02-23T17:49:14;14.00;95.10
46340;DHT22;47273;49.274;8.708;2023-02-23T17:51:40;13.90;95.20
46340;DHT22;47273;49.274;8.708;2023-02-23T17:54:06;13.90;95.20
46340;DHT22;47273;49.274;8.708;2023-02-23T17:56:33;13.90;95.50
46340;DHT22;47273;49.274;8.708;2023-02-23T17:58:59;13.80;95.60
46340;DHT22;47273;49.274;8.708;2023-02-23T18:01:27;13.80;95.50
46340;DHT22;47273;49.274;8.708;2023-02-23T18:03:56;13.80;95.70
46340;DHT22;47273;49.274;8.708;2023-02-23T18:06:23;13.70;95.80
46340;DHT22;47273;49.274;8.708;2023-02-23T18:08:52;13.70;95.90
46340;DHT22;47273;49.274;8.708;2023-02-23T18:11:18;13.70;95.80
46340;DHT22;47273;49.274;8.708;2023-02-23T18:13:44;13.70;95.80
46340;DHT22;47273;49.274;8.708;2023-02-23T18:16:10;13.70;95.90
46340;DHT22;47273;49.274;8.708;2023-02-23T18:18:41;13.60;95.90
46340;DHT22;47273;49.274;8.708;2023-02-23T18:21:14;13.60;95.90
46340;DHT22;47273;49.274;8.708;2023-02-23T18:23:43;13.60;95.90
46340;DHT22;47273;49.274;8.708;2023-02-23T18:26:11;13.60;96.10
46340;DHT22;47273;49.274;8.708;2023-02-23T18:28:37;13.60;96.10
46340;DHT22;47273;49.274;8.708;2023-02-23T18:31:05;13.60;96.20
46340;DHT22;47273;49.274;8.708;2023-02-23T18:33:33;13.60;96.30
46340;DHT22;47273;49.274;8.708;2023-02-23T18:36:00;13.50;96.30
46340;DHT22;47273;49.274;8.708;2023-02-23T18:38:31;13.50;96.50
46340;DHT22;47273;49.274;8.708;2023-02-23T18:40:57;13.50;96.60
46340;DHT22;47273;49.274;8.708;2023-02-23T18:43:23;13.50;96.90
46340;DHT22;47273;49.274;8.708;2023-02-23T18:45:51;13.50;97.00
46340;DHT22;47273;49.274;8.708;2023-02-23T18:48:25;13.50;97.00
46340;DHT22;47273;49.274;8.708;2023-02-23T18:50:55;13.40;97.30
46340;DHT22;47273;49.274;8.708;2023-02-23T18:53:24;13.40;97.30
46340;DHT22;47273;49.274;8.708;2023-02-23T18:55:54;13.40;97.50
46340;DHT22;47273;49.274;8.708;2023-02-23T18:58:21;13.40;97.40
46340;DHT22;47273;49.274;8.708;2023-02-23T19:00:52;13.40;97.40
46340;DHT22;47273;49.274;8.708;2023-02-23T19:03:23;13.30;97.40
46340;DHT22;47273;49.274;8.708;2023-02-23T19:05:53;13.30;97.60
46340;DHT22;47273;49.274;8.708;2023-02-23T19:08:26;13.30;97.50
46340;DHT22;47273;49.274;8.708;2023-02-23T19:10:56;13.30;97.50
46340;DHT22;47273;49.274;8.708;2023-02-23T19:13:49;13.20;97.50
46340;DHT22;47273;49.274;8.708;2023-02-23T19:16:26;13.20;97.40
46340;DHT22;47273;49.274;8.708;2023-02-23T19:19:05;13.20;97.40
46340;DHT22;47273;49.274;8.708;2023-02-23T19:21:31;13.20;97.40
46340;DHT22;47273;49.274;8.708;2023-02-23T19:23:58;13.20;97.50
46340;DHT22;47273;49.274;8.708;2023-02-23T19:26:28;13.10;97.60
46340;DHT22;47273;49.274;8.708;2023-02-23T19:28:56;13.10;97.80
46340;DHT22;47273;49.274;8.708;2023-02-23T19:31:25;13.10;97.80
46340;DHT22;47273;49.274;8.708;2023-02-23T19:34:16;13.10;98.10
46340;DHT22;47273;49.274;8.708;2023-02-23T19:36:42;13.10;98.00
46340;DHT22;47273;49.274;8.708;2023-02-23T19:39:11;13.00;98.30
46340;DHT22;47273;49.274;8.708;2023-02-23T19:42:01;13.10;98.40
46340;DHT22;47273;49.274;8.708;2023-02-23T19:45:13;13.10;98.80
46340;DHT22;47273;49.274;8.708;2023-02-23T19:47:41;13.10;99.00
46340;DHT22;47273;49.274;8.708;2023-02-23T19:50:09;13.00;98.80
46340;DHT22;47273;49.274;8.708;2023-02-23T19:52:35;13.00;98.90
46340;DHT22;47273;49.274;8.708;2023-02-23T19:55:04;12.90;98.90
46340;DHT22;47273;49.274;8.708;2023-02-23T19:57:30;12.90;98.80
46340;DHT22;47273;49.274;8.708;2023-02-23T20:00:20;12.90;98.70
46340;DHT22;47273;49.274;8.708;2023-02-23T20:03:55;12.90;98.80
46340;DHT22;47273;49.274;8.708;2023-02-23T20:06:37;12.90;98.90
46340;DHT22;47273;49.274;8.708;2023-02-23T20:09:04;12.80;99.00
46340;DHT22;47273;49.274;8.708;2023-02-23T20:11:32;12.80;99.00
46340;DHT22;47273;49.274;8.708;2023-02-23T20:13:58;12.90;99.00
46340;DHT22;47273;49.274;8.708;2023-02-23T20:16:27;12.80;99.40
46340;DHT22;47273;49.274;8.708;2023-02-23T20:19:02;12.80;99.30
46340;DHT22;47273;49.274;8.708;2023-02-23T20:21:31;12.70;99.40
46340;DHT22;47273;49.274;8.708;2023-02-23T20:23:57;12.70;99.70
46340;DHT22;47273;49.274;8.708;2023-02-23T20:26:31;12.70;99.60
46340;DHT22;47273;49.274;8.708;2023-02-23T20:29:08;12.70;99.80
46340;DHT22;47273;49.274;8.708;2023-02-23T20:31:36;12.70;99.60
46340;DHT22;47273;49.274;8.708;2023-02-23T20:34:07;12.70;99.70
46340;DHT22;47273;49.274;8.708;2023-02-23T20:36:35;12.80;99.90
46340;DHT22;47273;49.274;8.708;2023-02-23T20:39:02;12.80;99.90
46340;DHT22;47273;49.274;8.708;2023-02-23T20:41:28;12.80;99.80
46340;DHT22;47273;49.274;8.708;2023-02-23T20:43:57;12.80;99.80
46340;DHT22;47273;49.274;8.708;2023-02-23T20:46:28;12.80;99.90
46340;DHT22;47273;49.274;8.708;2023-02-23T20:48:55;12.80;99.80
46340;DHT22;47273;49.274;8.708;2023-02-23T21:24:57;12.40;99.90
46340;DHT22;47273;49.274;8.708;2023-02-23T21:27:25;12.50;99.90
46340;DHT22;47273;49.274;8.708;2023-02-23T21:29:51;12.40;99.90
46340;DHT22;47273;49.274;8.708;2023-02-23T21:32:20;12.40;99.90
46340;DHT22;47273;49.274;8.708;2023-02-23T21:34:47;12.40;99.90
46340;DHT22;47273;49.274;8.708;2023-02-23T21:37:13;12.40;99.90
46340;DHT22;47273;49.274;8.708;2023-02-23T21:39:40;12.40;99.90
46340;DHT22;47273;49.274;8.708;2023-02-23T21:42:06;12.30;99.90
46340;DHT22;47273;49.274;8.708;2023-02-23T21:44:34;12.30;99.90
46340;DHT22;47273;49.274;8.708;2023-02-23T21:47:00;12.30;99.90
46340;DHT22;47273;49.274;8.708;2023-02-23T21:49:29;12.20;99.90
